| time (UTC) | temp F | wind direction | speed knots | gust knots | rain 1hr in | rain 24hr in | rain mn in | humidity % | barometer mb |
| 20260508213054 | 79 | 293 | 0.9 | 4.3 | 0.00 | 0.00 | 0.00 | 20 | 1002.2 |
| 20260508211552 | 79 | 309 | 0.9 | 3.5 | 0.00 | 0.00 | 0.00 | 18 | 1002.2 |
| 20260508210050 | 78 | 271 | 0.9 | 5.2 | 0.00 | 0.00 | 0.00 | 20 | 1002.4 |
| 20260508204601 | 79 | 293 | 0.9 | 4.3 | 0.00 | 0.00 | 0.00 | 20 | 1002.7 |
| 20260508203049 | 79 | 297 | 0.9 | 4.3 | 0.00 | 0.00 | 0.00 | 20 | 1002.8 |
| 20260508201548 | 78 | 302 | 0.9 | 4.3 | 0.00 | 0.00 | 0.00 | 20 | 1003.0 |
| 20260508200045 | 77 | 275 | 0.9 | 5.2 | 0.00 | 0.00 | 0.00 | 20 | 1003.0 |
| 20260508194541 | 76 | 321 | 0.9 | 5.2 | 0.00 | 0.00 | 0.00 | 21 | 1003.0 |
| 20260508193045 | 76 | 308 | 0.0 | 4.3 | 0.00 | 0.00 | 0.00 | 23 | 1003.2 |
| 20260508191541 | 74 | 293 | 0.9 | 4.3 | 0.00 | 0.00 | 0.00 | 25 | 1003.5 |
| 20260508190045 | 74 | 314 | 2.6 | 5.2 | 0.00 | 0.00 | 0.00 | 23 | 1003.7 |
| 20260508184547 | 75 | 305 | 2.6 | 6.1 | 0.00 | 0.00 | 0.00 | 23 | 1003.8 |
| 20260508183044 | 75 | 295 | 1.7 | 5.2 | 0.00 | 0.00 | 0.00 | 23 | 1003.7 |
| 20260508181557 | 76 | 305 | 0.9 | 4.3 | 0.00 | 0.00 | 0.00 | 23 | 1003.9 |
| 20260508180034 | 75 | 302 | 0.0 | 3.5 | 0.00 | 0.00 | 0.00 | 24 | 1003.9 |
| 20260508174539 | 74 | 300 | 0.0 | 3.5 | 0.00 | 0.00 | 0.00 | 28 | 1004.1 |
| 20260508173031 | 74 | 315 | 1.7 | 3.5 | 0.00 | 0.00 | 0.00 | 30 | 1004.1 |
| 20260508171530 | 74 | 303 | 0.9 | 2.6 | 0.00 | 0.00 | 0.00 | 29 | 1004.0 |
| 20260508170028 | 73 | 309 | 0.9 | 2.6 | 0.00 | 0.00 | 0.00 | 29 | 1004.0 |
| 20260508164524 | 72 | 306 | 0.0 | 3.5 | 0.00 | 0.00 | 0.00 | 31 | 1004.0 |
| 20260508163033 | 71 | 303 | 0.0 | 2.6 | 0.00 | 0.00 | 0.00 | 33 | 1003.9 |
| 20260508161528 | 70 | 310 | 0.0 | 3.5 | 0.00 | 0.00 | 0.00 | 36 | 1004.0 |
| 20260508160018 | 70 | 309 | 0.0 | 1.7 | 0.00 | 0.00 | 0.00 | 36 | 1003.8 |
| 20260508154515 | 68 | 315 | 0.0 | 0.9 | 0.00 | 0.00 | 0.00 | 36 | 1003.8 |
| 20260508153016 | 67 | 305 | 0.0 | 0.9 | 0.00 | 0.00 | 0.00 | 39 | 1003.8 |
| 20260508151509 | 66 | 319 | 0.0 | 0.9 | 0.00 | 0.00 | 0.00 | 40 | 1003.8 |
| 20260508150010 | 66 | 319 | 0.0 | 0.9 | 0.00 | 0.00 | 0.00 | 39 | 1003.9 |
| 20260508144504 | 64 | 313 | 0.0 | 0.0 | 0.00 | 0.00 | 0.00 | 44 | 1003.8 |
| 20260508143001 | 62 | 313 | 0.0 | 0.0 | 0.00 | 0.00 | 0.00 | 54 | 1003.9 |
| 20260508141600 | 56 | 313 | 0.0 | 0.0 | 0.00 | 0.00 | 0.00 | 66 | 1004.0 |
| 20260508140056 | 51 | 313 | 0.0 | 0.0 | 0.00 | 0.00 | 0.00 | 79 | 1003.9 |
| 20260508134559 | 46 | 312 | 0.0 | 0.0 | 0.00 | 0.00 | 0.00 | 85 | 1003.8 |
| 20260508133050 | 45 | 312 | 0.0 | 0.0 | 0.00 | 0.00 | 0.00 | 84 | 1003.7 |
| 20260508131547 | 44 | 312 | 0.0 | 0.0 | 0.00 | 0.00 | 0.00 | 84 | 1003.5 |
| 20260508130046 | 44 | 313 | 0.0 | 0.0 | 0.00 | 0.00 | 0.00 | 84 | 1003.4 |
| 20260508124543 | 44 | 312 | 0.0 | 0.0 | 0.00 | 0.00 | 0.00 | 83 | 1003.2 |
| 20260508123049 | 44 | 313 | 0.0 | 0.0 | 0.00 | 0.00 | 0.00 | 83 | 1003.0 |
| 20260508121542 | 44 | 312 | 0.0 | 0.0 | 0.00 | 0.00 | 0.00 | 82 | 1002.9 |
| 20260508120043 | 45 | 313 | 0.0 | 0.0 | 0.00 | 0.00 | 0.00 | 82 | 1002.8 |
| 20260508114546 | 45 | 312 | 0.0 | 0.0 | 0.00 | 0.00 | 0.00 | 81 | 1002.7 |
| 20260508113040 | 45 | 313 | 0.0 | 0.0 | 0.00 | 0.00 | 0.00 | 81 | 1002.6 |
| 20260508111534 | 45 | 313 | 0.0 | 0.0 | 0.00 | 0.00 | 0.00 | 80 | 1002.6 |
| 20260508110031 | 46 | 312 | 0.0 | 0.0 | 0.00 | 0.00 | 0.00 | 80 | 1002.6 |
| 20260508104528 | 46 | 312 | 0.0 | 0.0 | 0.00 | 0.00 | 0.00 | 78 | 1002.6 |
| 20260508103034 | 46 | 313 | 0.0 | 0.0 | 0.00 | 0.00 | 0.00 | 79 | 1002.5 |
| 20260508101526 | 46 | 313 | 0.0 | 0.0 | 0.00 | 0.00 | 0.00 | 78 | 1002.6 |
| 20260508100025 | 46 | 312 | 0.0 | 0.9 | 0.00 | 0.00 | 0.00 | 77 | 1002.5 |
| 20260508094522 | 46 | 311 | 0.0 | 1.7 | 0.00 | 0.00 | 0.00 | 77 | 1002.5 |
| 20260508093021 | 46 | 309 | 0.0 | 0.0 | 0.00 | 0.00 | 0.00 | 77 | 1002.1 |
| 20260508091519 | 47 | 310 | 0.0 | 0.0 | 0.00 | 0.00 | 0.00 | 76 | 1002.1 |
| 20260508090022 | 47 | 310 | 0.0 | 0.0 | 0.00 | 0.00 | 0.00 | 76 | 1002.1 |
| 20260508084516 | 47 | 309 | 0.0 | 0.0 | 0.00 | 0.00 | 0.00 | 75 | 1002.2 |
| 20260508083013 | 47 | 310 | 0.0 | 0.0 | 0.00 | 0.00 | 0.00 | 74 | 1002.4 |
| 20260508081531 | 48 | 310 | 0.0 | 0.0 | 0.00 | 0.00 | 0.00 | 74 | 1002.3 |
| 20260508080011 | 48 | 309 | 0.0 | 0.0 | 0.00 | 0.00 | 0.00 | 73 | 1002.3 |
| 20260508074508 | 48 | 309 | 0.0 | 0.0 | 0.00 | 0.00 | 0.00 | 73 | 1002.2 |
| 20260508073005 | 49 | 309 | 0.0 | 0.0 | 0.00 | 0.00 | 0.00 | 72 | 1002.1 |
| 20260508071503 | 49 | 309 | 0.0 | 0.0 | 0.00 | 0.00 | 0.00 | 70 | 1001.9 |
| 20260508070104 | 50 | 309 | 0.0 | 0.0 | 0.00 | 0.00 | 0.00 | 70 | 1001.8 |
| 20260508064558 | 50 | 309 | 0.0 | 0.0 | 0.00 | 0.00 | 0.00 | 69 | 1001.9 |
| 20260508063105 | 51 | 309 | 0.0 | 0.0 | 0.00 | 0.00 | 0.00 | 66 | 1001.9 |
| 20260508061556 | 51 | 309 | 0.0 | 0.0 | 0.00 | 0.00 | 0.00 | 66 | 1001.9 |
| 20260508060055 | 52 | 309 | 0.0 | 0.0 | 0.00 | 0.00 | 0.00 | 65 | 1001.8 |
| 20260508054550 | 53 | 310 | 0.0 | 0.0 | 0.00 | 0.00 | 0.00 | 64 | 1001.7 |
| 20260508053049 | 53 | 309 | 0.0 | 0.0 | 0.00 | 0.00 | 0.00 | 63 | 1001.5 |
| 20260508051550 | 54 | 309 | 0.0 | 0.0 | 0.00 | 0.00 | 0.00 | 63 | 1001.4 |
| 20260508050048 | 55 | 309 | 0.0 | 0.0 | 0.00 | 0.00 | 0.00 | 61 | 1001.5 |
| 20260508044547 | 55 | 300 | 0.0 | 0.0 | 0.00 | 0.00 | 0.00 | 59 | 1001.5 |
| 20260508043048 | 56 | 300 | 0.0 | 0.0 | 0.00 | 0.00 | 0.00 | 59 | 1001.4 |
| 20260508041546 | 56 | 300 | 0.0 | 0.0 | 0.00 | 0.00 | 0.00 | 56 | 1001.2 |
| 20260508040052 | 57 | 300 | 0.0 | 0.0 | 0.00 | 0.00 | 0.00 | 55 | 1001.2 |
| 20260508034545 | 58 | 300 | 0.0 | 0.0 | 0.00 | 0.00 | 0.00 | 54 | 1000.9 |
| 20260508033045 | 59 | 300 | 0.0 | 0.0 | 0.00 | 0.00 | 0.00 | 49 | 1001.0 |
| 20260508031544 | 61 | 300 | 0.0 | 0.0 | 0.00 | 0.00 | 0.00 | 47 | 1000.9 |
| 20260508030044 | 63 | 300 | 0.0 | 0.0 | 0.00 | 0.00 | 0.00 | 42 | 1000.6 |
| 20260508024549 | 66 | 300 | 0.0 | 0.0 | 0.00 | 0.00 | 0.00 | 40 | 1000.6 |
| 20260508023043 | 69 | 300 | 0.0 | 0.0 | 0.00 | 0.00 | 0.00 | 34 | 1000.5 |
| 20260508021544 | 74 | 300 | 0.0 | 0.0 | 0.00 | 0.00 | 0.00 | 28 | 1000.6 |
| 20260508020041 | 78 | 300 | 0.0 | 0.0 | 0.00 | 0.00 | 0.00 | 24 | 1000.5 |
| 20260508014543 | 77 | 300 | 0.0 | 0.0 | 0.00 | 0.00 | 0.00 | 22 | 1000.5 |
| 20260508013045 | 78 | 300 | 0.0 | 0.0 | 0.00 | 0.00 | 0.00 | 21 | 1000.6 |
| 20260508011538 | 76 | 300 | 0.0 | 2.6 | 0.00 | 0.00 | 0.00 | 22 | 1000.6 |
| 20260508010037 | 75 | 317 | 0.0 | 1.7 | 0.00 | 0.00 | 0.00 | 23 | 1000.7 |
| 20260508004536 | 73 | 293 | 0.0 | 0.9 | 0.00 | 0.00 | 0.00 | 25 | 1000.8 |
| 20260508003033 | 73 | 290 | 0.0 | 0.9 | 0.00 | 0.00 | 0.00 | 24 | 1000.9 |
| 20260508001533 | 74 | 319 | 0.0 | 1.7 | 0.00 | 0.00 | 0.00 | 24 | 1001.2 |
| 20260508000031 | 74 | 302 | 0.0 | 0.9 | 0.00 | 0.00 | 0.00 | 23 | 1001.3 |
| 20260507234530 | 74 | 328 | 0.0 | 1.7 | 0.00 | 0.00 | 0.00 | 23 | 1001.5 |
| 20260507233039 | 75 | 305 | 0.0 | 2.6 | 0.00 | 0.00 | 0.00 | 22 | 1001.6 |
| 20260507231534 | 76 | 322 | 0.0 | 1.7 | 0.00 | 0.00 | 0.00 | 22 | 1001.8 |
| 20260507230025 | 77 | 305 | 0.0 | 3.5 | 0.00 | 0.00 | 0.00 | 23 | 1002.2 |
| 20260507224521 | 76 | 325 | 0.0 | 3.5 | 0.00 | 0.00 | 0.00 | 23 | 1002.5 |
| 20260507223021 | 76 | 297 | 0.9 | 3.5 | 0.00 | 0.00 | 0.00 | 24 | 1002.8 |
| 20260507221525 | 76 | 306 | 0.9 | 4.3 | 0.00 | 0.00 | 0.00 | 24 | 1002.9 |
| 20260507220020 | 77 | 302 | 0.0 | 3.5 | 0.00 | 0.00 | 0.00 | 22 | 1003.0 |
| 20260507214518 | 77 | 308 | 0.0 | 6.1 | 0.00 | 0.00 | 0.00 | 23 | 1003.2 |